Date,TemperatureHighF,TemperatureAvgF,TemperatureLowF,DewpointHighF,DewpointAvgF,DewpointLowF,HumidityHigh,HumidityAvg,HumidityLow,PressureMaxIn,PressureMinIn,WindSpeedMaxMPH,WindSpeedAvgMPH,GustSpeedMaxMPH,PrecipitationSumIn
2013-3-1,55.6,46.6,39.5,40.0,35.5,32.0,85,67,45,30.06,29.93,7,1,10,0.00
2013-3-2,52.0,41.0,29.3,33.0,28.4,25.0,94,64,39,30.10,29.98,10,2,14,0.00
2013-3-3,53.6,41.5,32.8,31.0,27.3,24.0,86,60,33,30.13,30.03,8,2,15,0.00
2013-3-4,63.2,49.2,30.1,57.0,40.9,28.0,91,75,42,30.16,29.97,6,1,13,0.00
2013-3-5,75.7,64.5,47.2,64.0,58.6,42.0,97,82,65,30.06,29.87,8,2,17,0.02
2013-3-6,60.4,48.3,39.2,41.0,33.2,28.0,87,60,32,30.20,30.05,15,2,15,0.02
2013-3-7,63.7,46.9,33.7,45.0,36.7,30.0,92,71,33,30.26,30.14,5,1,10,0.00
2013-3-8,73.3,53.8,37.1,49.0,41.3,34.0,91,67,24,30.24,30.11,4,1,9,0.00
2013-3-9,67.8,56.3,43.0,56.0,48.4,41.0,94,76,54,30.18,30.04,4,0,9,0.00
2013-3-10,70.9,61.9,53.8,62.0,56.0,46.0,93,81,67,30.07,29.94,4,1,12,0.00
2013-3-11,69.5,59.8,49.5,64.0,57.8,46.0,97,93,83,29.94,29.74,8,2,12,0.99
2013-3-12,66.7,52.2,42.6,46.0,39.1,35.0,90,65,33,30.11,29.86,10,3,15,0.00
2013-3-13,67.7,53.7,40.5,40.0,33.9,24.0,84,52,23,30.26,30.11,10,2,16,0.00
2013-3-14,65.5,49.8,37.8,38.0,29.0,23.0,79,49,22,30.35,30.20,6,2,17,0.00
2013-3-15,70.4,53.8,37.2,51.0,42.1,32.0,91,68,34,30.25,30.10,5,1,10,0.00
2013-3-16,77.0,60.9,46.7,61.0,54.6,45.0,98,82,49,30.09,29.95,7,1,15,0.00
2013-3-17,71.4,62.0,54.2,66.0,60.3,53.0,98,94,84,29.98,29.88,6,0,8,0.00
2013-3-18,76.3,67.5,60.8,70.0,65.0,60.0,98,91,80,29.90,29.75,14,1,14,0.01
2013-3-19,78.5,66.0,57.5,64.0,59.7,52.0,97,82,57,29.98,29.82,6,1,10,0.26
2013-3-20,67.1,59.2,42.7,51.0,38.4,34.0,80,48,34,30.01,29.89,6,2,13,0.00
2013-3-21,68.0,52.6,40.5,44.0,34.5,25.0,83,55,20,30.01,29.84,9,1,11,0.00
2013-3-22,68.1,58.4,48.4,53.0,43.2,33.0,78,58,36,29.95,29.84,4,1,11,0.00
2013-3-23,70.8,63.4,60.1,67.0,57.1,42.0,98,81,48,29.85,29.56,4,0,9,0.05
2013-3-24,82.7,71.3,52.8,70.0,61.9,36.0,98,74,43,29.82,29.49,8,2,15,0.15
2013-3-25,61.5,50.8,40.3,37.0,28.2,19.0,72,45,24,30.14,29.82,8,3,15,0.00
2013-3-26,57.3,45.6,34.6,29.0,26.8,24.0,72,50,31,30.30,30.14,8,2,15,0.00
2013-3-27,61.1,45.9,31.2,40.0,32.8,27.0,89,64,31,30.36,30.21,6,1,11,0.00
2013-3-28,69.1,51.6,36.0,44.0,38.0,32.0,89,65,32,30.29,30.18,6,1,11,0.00
2013-3-29,72.8,56.1,38.8,52.0,43.8,36.0,92,68,30,30.28,30.16,4,1,10,0.00
2013-3-30,73.8,60.0,45.9,63.0,55.1,44.0,98,85,57,30.18,30.01,6,1,11,0.00
2013-3-31,77.1,66.9,57.0,69.0,63.4,56.0,98,89,73,30.02,29.84,8,1,11,0.00